sensor_id;sensor_type;location;lat;lon;timestamp;P1;durP1;ratioP1;P2;durP2;ratioP2
75687;SDS011;64300;45.034;38.910;2023-02-23T00:01:56;12.02;;;6.10;;
75687;SDS011;64300;45.034;38.910;2023-02-23T00:04:30;17.20;;;6.97;;
75687;SDS011;64300;45.034;38.910;2023-02-23T00:06:57;14.10;;;6.18;;
75687;SDS011;64300;45.034;38.910;2023-02-23T00:09:23;15.85;;;6.88;;
75687;SDS011;64300;45.034;38.910;2023-02-23T00:11:49;16.33;;;6.93;;
75687;SDS011;64300;45.034;38.910;2023-02-23T00:14:25;15.23;;;6.78;;
75687;SDS011;64300;45.034;38.910;2023-02-23T00:16:53;16.50;;;7.13;;
75687;SDS011;64300;45.034;38.910;2023-02-23T00:19:20;17.63;;;6.53;;
75687;SDS011;64300;45.034;38.910;2023-02-23T00:21:48;15.18;;;7.43;;
75687;SDS011;64300;45.034;38.910;2023-02-23T00:24:15;14.25;;;6.80;;
75687;SDS011;64300;45.034;38.910;2023-02-23T00:26:43;17.38;;;9.02;;
75687;SDS011;64300;45.034;38.910;2023-02-23T00:29:16;30.40;;;12.43;;
75687;SDS011;64300;45.034;38.910;2023-02-23T00:31:45;20.17;;;9.38;;
75687;SDS011;64300;45.034;38.910;2023-02-23T00:34:13;15.00;;;7.82;;
75687;SDS011;64300;45.034;38.910;2023-02-23T00:36:41;14.57;;;6.78;;
75687;SDS011;64300;45.034;38.910;2023-02-23T00:39:09;26.60;;;8.05;;
75687;SDS011;64300;45.034;38.910;2023-02-23T00:41:56;17.48;;;8.38;;
75687;SDS011;64300;45.034;38.910;2023-02-23T00:44:27;13.25;;;6.90;;
75687;SDS011;64300;45.034;38.910;2023-02-23T00:46:53;16.65;;;7.57;;
75687;SDS011;64300;45.034;38.910;2023-02-23T00:49:20;17.27;;;7.82;;
75687;SDS011;64300;45.034;38.910;2023-02-23T00:51:47;16.60;;;7.45;;
75687;SDS011;64300;45.034;38.910;2023-02-23T00:54:14;14.55;;;6.85;;
75687;SDS011;64300;45.034;38.910;2023-02-23T00:56:41;10.30;;;5.22;;
75687;SDS011;64300;45.034;38.910;2023-02-23T00:59:07;15.75;;;7.38;;
75687;SDS011;64300;45.034;38.910;2023-02-23T01:01:34;15.63;;;7.80;;
75687;SDS011;64300;45.034;38.910;2023-02-23T01:04:01;14.98;;;7.90;;
75687;SDS011;64300;45.034;38.910;2023-02-23T01:06:28;13.18;;;7.28;;
75687;SDS011;64300;45.034;38.910;2023-02-23T01:08:56;15.70;;;6.95;;
75687;SDS011;64300;45.034;38.910;2023-02-23T01:11:23;19.70;;;9.75;;
75687;SDS011;64300;45.034;38.910;2023-02-23T01:13:53;20.33;;;10.10;;
75687;SDS011;64300;45.034;38.910;2023-02-23T01:16:23;20.60;;;9.32;;
75687;SDS011;64300;45.034;38.910;2023-02-23T01:18:52;15.80;;;8.27;;
75687;SDS011;64300;45.034;38.910;2023-02-23T01:21:21;19.55;;;7.60;;
75687;SDS011;64300;45.034;38.910;2023-02-23T01:23:47;17.35;;;8.13;;
75687;SDS011;64300;45.034;38.910;2023-02-23T01:26:17;14.90;;;8.05;;
75687;SDS011;64300;45.034;38.910;2023-02-23T01:28:54;16.65;;;7.45;;
75687;SDS011;64300;45.034;38.910;2023-02-23T01:31:23;14.70;;;7.28;;
75687;SDS011;64300;45.034;38.910;2023-02-23T01:33:53;14.63;;;7.22;;
75687;SDS011;64300;45.034;38.910;2023-02-23T01:36:20;9.05;;;4.63;;
75687;SDS011;64300;45.034;38.910;2023-02-23T01:38:46;15.00;;;5.28;;
75687;SDS011;64300;45.034;38.910;2023-02-23T01:41:13;8.65;;;4.32;;
75687;SDS011;64300;45.034;38.910;2023-02-23T01:46:38;13.07;;;5.18;;
75687;SDS011;64300;45.034;38.910;2023-02-23T01:49:08;9.32;;;4.00;;
75687;SDS011;64300;45.034;38.910;2023-02-23T01:51:38;13.23;;;4.78;;
75687;SDS011;64300;45.034;38.910;2023-02-23T01:54:11;8.90;;;4.20;;
75687;SDS011;64300;45.034;38.910;2023-02-23T01:56:41;9.00;;;4.32;;
75687;SDS011;64300;45.034;38.910;2023-02-23T01:59:11;9.18;;;4.47;;
75687;SDS011;64300;45.034;38.910;2023-02-23T02:01:39;9.95;;;4.25;;
75687;SDS011;64300;45.034;38.910;2023-02-23T02:04:08;10.88;;;4.50;;
75687;SDS011;64300;45.034;38.910;2023-02-23T02:06:40;10.15;;;5.07;;
75687;SDS011;64300;45.034;38.910;2023-02-23T02:09:10;10.82;;;5.15;;
75687;SDS011;64300;45.034;38.910;2023-02-23T02:11:42;11.82;;;5.18;;
75687;SDS011;64300;45.034;38.910;2023-02-23T02:22:35;10.30;;;5.15;;
75687;SDS011;64300;45.034;38.910;2023-02-23T02:39:31;11.57;;;4.85;;
75687;SDS011;64300;45.034;38.910;2023-02-23T02:45:09;11.23;;;5.40;;
75687;SDS011;64300;45.034;38.910;2023-02-23T02:53:17;8.82;;;4.47;;
75687;SDS011;64300;45.034;38.910;2023-02-23T02:56:01;6.88;;;3.17;;
75687;SDS011;64300;45.034;38.910;2023-02-23T02:58:32;10.73;;;4.93;;
75687;SDS011;64300;45.034;38.910;2023-02-23T03:01:05;7.57;;;3.85;;
75687;SDS011;64300;45.034;38.910;2023-02-23T03:03:52;6.97;;;3.03;;
75687;SDS011;64300;45.034;38.910;2023-02-23T03:12:36;7.75;;;3.40;;
75687;SDS011;64300;45.034;38.910;2023-02-23T03:18:50;11.57;;;5.07;;
75687;SDS011;64300;45.034;38.910;2023-02-23T03:22:02;9.13;;;4.57;;
75687;SDS011;64300;45.034;38.910;2023-02-23T03:30:53;16.98;;;7.63;;
75687;SDS011;64300;45.034;38.910;2023-02-23T03:36:53;3.80;;;2.10;;
75687;SDS011;64300;45.034;38.910;2023-02-23T03:39:47;11.43;;;5.50;;
75687;SDS011;64300;45.034;38.910;2023-02-23T03:42:38;15.65;;;7.20;;
75687;SDS011;64300;45.034;38.910;2023-02-23T03:45:23;12.82;;;5.65;;
75687;SDS011;64300;45.034;38.910;2023-02-23T03:48:11;13.77;;;6.15;;
75687;SDS011;64300;45.034;38.910;2023-02-23T03:51:00;17.55;;;7.63;;
75687;SDS011;64300;45.034;38.910;2023-02-23T03:56:47;16.00;;;5.78;;
75687;SDS011;64300;45.034;38.910;2023-02-23T03:59:39;20.42;;;7.90;;
75687;SDS011;64300;45.034;38.910;2023-02-23T04:02:38;18.40;;;7.85;;
75687;SDS011;64300;45.034;38.910;2023-02-23T04:05:25;31.30;;;8.32;;
75687;SDS011;64300;45.034;38.910;2023-02-23T04:08:13;20.70;;;7.43;;
75687;SDS011;64300;45.034;38.910;2023-02-23T04:14:17;20.10;;;9.00;;
75687;SDS011;64300;45.034;38.910;2023-02-23T04:16:48;15.73;;;6.25;;
75687;SDS011;64300;45.034;38.910;2023-02-23T04:19:15;23.70;;;8.90;;
75687;SDS011;64300;45.034;38.910;2023-02-23T04:21:41;27.02;;;10.45;;
75687;SDS011;64300;45.034;38.910;2023-02-23T04:24:07;21.30;;;7.78;;
75687;SDS011;64300;45.034;38.910;2023-02-23T04:26:39;25.02;;;10.00;;
75687;SDS011;64300;45.034;38.910;2023-02-23T04:29:06;18.80;;;6.75;;
75687;SDS011;64300;45.034;38.910;2023-02-23T04:31:32;19.98;;;8.75;;
75687;SDS011;64300;45.034;38.910;2023-02-23T04:33:58;24.40;;;7.88;;
75687;SDS011;64300;45.034;38.910;2023-02-23T04:36:24;17.88;;;7.47;;
75687;SDS011;64300;45.034;38.910;2023-02-23T04:38:51;25.60;;;9.40;;
75687;SDS011;64300;45.034;38.910;2023-02-23T04:41:17;13.07;;;6.18;;
75687;SDS011;64300;45.034;38.910;2023-02-23T04:43:44;18.27;;;7.57;;
75687;SDS011;64300;45.034;38.910;2023-02-23T04:46:10;11.02;;;4.60;;
75687;SDS011;64300;45.034;38.910;2023-02-23T04:48:35;18.95;;;8.15;;
75687;SDS011;64300;45.034;38.910;2023-02-23T04:51:01;22.30;;;8.40;;
75687;SDS011;64300;45.034;38.910;2023-02-23T04:53:27;20.17;;;7.50;;
75687;SDS011;64300;45.034;38.910;2023-02-23T04:55:53;16.77;;;6.43;;
75687;SDS011;64300;45.034;38.910;2023-02-23T04:58:19;7.63;;;3.00;;
75687;SDS011;64300;45.034;38.910;2023-02-23T05:00:45;11.45;;;4.47;;
75687;SDS011;64300;45.034;38.910;2023-02-23T05:03:14;21.95;;;7.50;;
75687;SDS011;64300;45.034;38.910;2023-02-23T05:05:42;16.02;;;5.38;;
75687;SDS011;64300;45.034;38.910;2023-02-23T05:08:08;15.00;;;5.85;;
75687;SDS011;64300;45.034;38.910;2023-02-23T05:10:38;6.03;;;2.75;;
75687;SDS011;64300;45.034;38.910;2023-02-23T05:13:04;12.35;;;5.38;;
75687;SDS011;64300;45.034;38.910;2023-02-23T05:15:30;18.45;;;6.07;;
75687;SDS011;64300;45.034;38.910;2023-02-23T05:17:56;14.63;;;5.00;;
75687;SDS011;64300;45.034;38.910;2023-02-23T05:20:22;8.07;;;3.47;;
75687;SDS011;64300;45.034;38.910;2023-02-23T05:22:48;9.25;;;3.47;;
75687;SDS011;64300;45.034;38.910;2023-02-23T05:25:13;10.27;;;4.63;;
75687;SDS011;64300;45.034;38.910;2023-02-23T05:27:39;12.50;;;5.05;;
75687;SDS011;64300;45.034;38.910;2023-02-23T05:30:05;11.77;;;3.53;;
75687;SDS011;64300;45.034;38.910;2023-02-23T05:32:34;11.40;;;5.38;;
75687;SDS011;64300;45.034;38.910;2023-02-23T05:35:00;10.82;;;4.57;;
75687;SDS011;64300;45.034;38.910;2023-02-23T05:37:26;12.80;;;5.75;;
75687;SDS011;64300;45.034;38.910;2023-02-23T05:39:52;12.18;;;4.65;;
75687;SDS011;64300;45.034;38.910;2023-02-23T05:42:18;11.45;;;4.88;;
75687;SDS011;64300;45.034;38.910;2023-02-23T05:44:44;3.75;;;1.75;;
75687;SDS011;64300;45.034;38.910;2023-02-23T05:47:10;5.57;;;2.22;;
75687;SDS011;64300;45.034;38.910;2023-02-23T05:49:36;8.25;;;3.25;;
75687;SDS011;64300;45.034;38.910;2023-02-23T05:52:02;13.63;;;5.20;;
75687;SDS011;64300;45.034;38.910;2023-02-23T05:56:54;11.93;;;4.57;;
75687;SDS011;64300;45.034;38.910;2023-02-23T05:59:20;10.68;;;4.47;;
75687;SDS011;64300;45.034;38.910;2023-02-23T06:01:46;6.75;;;3.03;;
75687;SDS011;64300;45.034;38.910;2023-02-23T06:04:12;4.75;;;2.60;;
75687;SDS011;64300;45.034;38.910;2023-02-23T06:06:38;11.63;;;3.75;;
75687;SDS011;64300;45.034;38.910;2023-02-23T06:09:04;17.95;;;6.18;;
75687;SDS011;64300;45.034;38.910;2023-02-23T06:11:30;9.90;;;4.30;;
75687;SDS011;64300;45.034;38.910;2023-02-23T06:13:57;11.98;;;4.90;;
75687;SDS011;64300;45.034;38.910;2023-02-23T06:16:24;11.23;;;4.63;;
75687;SDS011;64300;45.034;38.910;2023-02-23T06:18:50;5.38;;;2.50;;
75687;SDS011;64300;45.034;38.910;2023-02-23T06:21:18;15.55;;;5.57;;
75687;SDS011;64300;45.034;38.910;2023-02-23T06:23:44;14.35;;;5.55;;
75687;SDS011;64300;45.034;38.910;2023-02-23T06:26:10;12.70;;;5.35;;
75687;SDS011;64300;45.034;38.910;2023-02-23T06:28:36;7.07;;;2.88;;
75687;SDS011;64300;45.034;38.910;2023-02-23T06:31:02;20.55;;;7.35;;
75687;SDS011;64300;45.034;38.910;2023-02-23T06:33:28;20.88;;;8.65;;
75687;SDS011;64300;45.034;38.910;2023-02-23T06:35:55;17.42;;;3.20;;
75687;SDS011;64300;45.034;38.910;2023-02-23T06:38:21;15.63;;;6.75;;
75687;SDS011;64300;45.034;38.910;2023-02-23T06:40:47;17.85;;;7.30;;
75687;SDS011;64300;45.034;38.910;2023-02-23T06:43:13;13.10;;;6.28;;
75687;SDS011;64300;45.034;38.910;2023-02-23T06:45:38;16.98;;;7.13;;
75687;SDS011;64300;45.034;38.910;2023-02-23T06:48:05;14.15;;;5.28;;
75687;SDS011;64300;45.034;38.910;2023-02-23T06:50:32;13.65;;;5.03;;
75687;SDS011;64300;45.034;38.910;2023-02-23T06:53:00;11.82;;;5.60;;
75687;SDS011;64300;45.034;38.910;2023-02-23T06:55:26;19.02;;;7.63;;
75687;SDS011;64300;45.034;38.910;2023-02-23T06:57:52;6.53;;;2.65;;
75687;SDS011;64300;45.034;38.910;2023-02-23T07:00:19;6.30;;;3.55;;
75687;SDS011;64300;45.034;38.910;2023-02-23T07:02:45;19.63;;;7.82;;
75687;SDS011;64300;45.034;38.910;2023-02-23T07:05:11;14.55;;;6.03;;
75687;SDS011;64300;45.034;38.910;2023-02-23T07:07:37;15.95;;;5.32;;
75687;SDS011;64300;45.034;38.910;2023-02-23T07:10:04;9.70;;;3.15;;
75687;SDS011;64300;45.034;38.910;2023-02-23T07:12:30;15.52;;;6.18;;
75687;SDS011;64300;45.034;38.910;2023-02-23T07:14:56;10.15;;;5.10;;
75687;SDS011;64300;45.034;38.910;2023-02-23T07:17:25;5.60;;;3.17;;
75687;SDS011;64300;45.034;38.910;2023-02-23T07:19:51;8.60;;;3.45;;
75687;SDS011;64300;45.034;38.910;2023-02-23T07:22:17;10.98;;;4.40;;
75687;SDS011;64300;45.034;38.910;2023-02-23T07:24:42;16.33;;;6.43;;
75687;SDS011;64300;45.034;38.910;2023-02-23T07:27:08;17.95;;;6.60;;
75687;SDS011;64300;45.034;38.910;2023-02-23T07:29:34;5.88;;;2.28;;
75687;SDS011;64300;45.034;38.910;2023-02-23T07:32:00;10.88;;;3.38;;
75687;SDS011;64300;45.034;38.910;2023-02-23T07:34:26;10.85;;;4.40;;
75687;SDS011;64300;45.034;38.910;2023-02-23T07:36:52;14.93;;;5.95;;
75687;SDS011;64300;45.034;38.910;2023-02-23T07:39:18;17.98;;;4.65;;
75687;SDS011;64300;45.034;38.910;2023-02-23T07:41:44;9.60;;;3.22;;
75687;SDS011;64300;45.034;38.910;2023-02-23T07:44:17;18.98;;;5.95;;
75687;SDS011;64300;45.034;38.910;2023-02-23T07:46:44;17.77;;;6.50;;
75687;SDS011;64300;45.034;38.910;2023-02-23T07:49:10;15.13;;;6.65;;
75687;SDS011;64300;45.034;38.910;2023-02-23T07:51:37;10.15;;;3.47;;
75687;SDS011;64300;45.034;38.910;2023-02-23T07:54:04;22.08;;;7.60;;
75687;SDS011;64300;45.034;38.910;2023-02-23T07:56:31;15.93;;;5.93;;
75687;SDS011;64300;45.034;38.910;2023-02-23T07:58:57;22.27;;;7.47;;
75687;SDS011;64300;45.034;38.910;2023-02-23T08:01:23;15.20;;;6.95;;
75687;SDS011;64300;45.034;38.910;2023-02-23T08:03:49;12.02;;;4.95;;
75687;SDS011;64300;45.034;38.910;2023-02-23T08:06:17;29.00;;;7.10;;
75687;SDS011;64300;45.034;38.910;2023-02-23T08:08:46;17.02;;;6.32;;
75687;SDS011;64300;45.034;38.910;2023-02-23T08:11:12;13.68;;;5.03;;
75687;SDS011;64300;45.034;38.910;2023-02-23T08:13:38;18.35;;;7.03;;
75687;SDS011;64300;45.034;38.910;2023-02-23T08:16:03;21.08;;;7.07;;
75687;SDS011;64300;45.034;38.910;2023-02-23T08:18:30;12.32;;;4.50;;
75687;SDS011;64300;45.034;38.910;2023-02-23T08:20:59;11.07;;;5.57;;
75687;SDS011;64300;45.034;38.910;2023-02-23T08:23:28;8.70;;;3.47;;
75687;SDS011;64300;45.034;38.910;2023-02-23T08:25:55;15.27;;;6.13;;
75687;SDS011;64300;45.034;38.910;2023-02-23T08:28:21;11.40;;;3.85;;
75687;SDS011;64300;45.034;38.910;2023-02-23T08:30:47;21.73;;;7.97;;
75687;SDS011;64300;45.034;38.910;2023-02-23T08:33:13;11.63;;;5.03;;
75687;SDS011;64300;45.034;38.910;2023-02-23T08:35:38;16.08;;;5.93;;
75687;SDS011;64300;45.034;38.910;2023-02-23T08:38:05;16.17;;;6.07;;
75687;SDS011;64300;45.034;38.910;2023-02-23T08:40:31;6.75;;;2.67;;
75687;SDS011;64300;45.034;38.910;2023-02-23T08:42:59;12.63;;;5.47;;
75687;SDS011;64300;45.034;38.910;2023-02-23T08:45:25;11.02;;;4.68;;
75687;SDS011;64300;45.034;38.910;2023-02-23T08:47:54;6.45;;;2.95;;
75687;SDS011;64300;45.034;38.910;2023-02-23T08:50:20;15.55;;;6.47;;
75687;SDS011;64300;45.034;38.910;2023-02-23T08:52:46;11.38;;;4.93;;
75687;SDS011;64300;45.034;38.910;2023-02-23T08:55:12;12.23;;;4.80;;
75687;SDS011;64300;45.034;38.910;2023-02-23T08:57:43;13.95;;;5.60;;
75687;SDS011;64300;45.034;38.910;2023-02-23T09:00:15;10.60;;;4.10;;
75687;SDS011;64300;45.034;38.910;2023-02-23T09:02:43;14.13;;;5.97;;
75687;SDS011;64300;45.034;38.910;2023-02-23T09:05:12;9.13;;;4.22;;
75687;SDS011;64300;45.034;38.910;2023-02-23T09:07:38;14.82;;;5.55;;
75687;SDS011;64300;45.034;38.910;2023-02-23T09:10:10;9.27;;;4.07;;
75687;SDS011;64300;45.034;38.910;2023-02-23T09:12:38;15.77;;;5.32;;
75687;SDS011;64300;45.034;38.910;2023-02-23T09:15:04;13.73;;;6.38;;
75687;SDS011;64300;45.034;38.910;2023-02-23T09:17:31;11.68;;;4.93;;
75687;SDS011;64300;45.034;38.910;2023-02-23T09:19:56;9.73;;;4.05;;
75687;SDS011;64300;45.034;38.910;2023-02-23T09:22:22;6.55;;;3.13;;
75687;SDS011;64300;45.034;38.910;2023-02-23T09:24:48;10.38;;;4.13;;
75687;SDS011;64300;45.034;38.910;2023-02-23T09:27:14;12.75;;;5.30;;
75687;SDS011;64300;45.034;38.910;2023-02-23T09:29:40;15.05;;;6.05;;
75687;SDS011;64300;45.034;38.910;2023-02-23T09:32:09;9.50;;;3.97;;
75687;SDS011;64300;45.034;38.910;2023-02-23T09:34:35;12.40;;;4.35;;
75687;SDS011;64300;45.034;38.910;2023-02-23T09:37:02;14.70;;;6.00;;
75687;SDS011;64300;45.034;38.910;2023-02-23T09:39:28;13.43;;;4.97;;
75687;SDS011;64300;45.034;38.910;2023-02-23T09:50:12;9.45;;;4.75;;
75687;SDS011;64300;45.034;38.910;2023-02-23T09:52:43;15.65;;;6.10;;
75687;SDS011;64300;45.034;38.910;2023-02-23T09:55:12;11.25;;;5.03;;
75687;SDS011;64300;45.034;38.910;2023-02-23T09:57:40;5.88;;;2.47;;
75687;SDS011;64300;45.034;38.910;2023-02-23T10:00:33;7.00;;;3.30;;
75687;SDS011;64300;45.034;38.910;2023-02-23T10:06:03;11.30;;;4.50;;
75687;SDS011;64300;45.034;38.910;2023-02-23T10:11:26;13.52;;;6.22;;
75687;SDS011;64300;45.034;38.910;2023-02-23T10:22:06;9.10;;;4.15;;
75687;SDS011;64300;45.034;38.910;2023-02-23T10:27:19;14.88;;;5.88;;
75687;SDS011;64300;45.034;38.910;2023-02-23T10:32:36;6.60;;;2.85;;
75687;SDS011;64300;45.034;38.910;2023-02-23T10:35:11;12.43;;;4.55;;
75687;SDS011;64300;45.034;38.910;2023-02-23T10:37:39;14.88;;;5.32;;
75687;SDS011;64300;45.034;38.910;2023-02-23T10:40:05;8.43;;;3.65;;
75687;SDS011;64300;45.034;38.910;2023-02-23T10:42:39;7.15;;;3.00;;
75687;SDS011;64300;45.034;38.910;2023-02-23T10:45:18;9.73;;;3.80;;
75687;SDS011;64300;45.034;38.910;2023-02-23T10:48:12;15.07;;;4.90;;
75687;SDS011;64300;45.034;38.910;2023-02-23T10:50:54;15.18;;;6.57;;
75687;SDS011;64300;45.034;38.910;2023-02-23T10:53:30;16.55;;;5.55;;
75687;SDS011;64300;45.034;38.910;2023-02-23T10:56:02;10.57;;;4.53;;
75687;SDS011;64300;45.034;38.910;2023-02-23T10:58:29;12.27;;;4.82;;
75687;SDS011;64300;45.034;38.910;2023-02-23T11:03:35;10.48;;;3.70;;
75687;SDS011;64300;45.034;38.910;2023-02-23T11:06:11;4.30;;;2.35;;
75687;SDS011;64300;45.034;38.910;2023-02-23T11:08:54;6.38;;;2.55;;
75687;SDS011;64300;45.034;38.910;2023-02-23T11:11:23;8.23;;;3.95;;
75687;SDS011;64300;45.034;38.910;2023-02-23T11:13:53;5.57;;;2.90;;
75687;SDS011;64300;45.034;38.910;2023-02-23T11:16:24;9.80;;;4.03;;
75687;SDS011;64300;45.034;38.910;2023-02-23T11:19:03;10.73;;;5.03;;
75687;SDS011;64300;45.034;38.910;2023-02-23T11:21:31;14.40;;;5.72;;
75687;SDS011;64300;45.034;38.910;2023-02-23T11:26:49;12.02;;;4.28;;
75687;SDS011;64300;45.034;38.910;2023-02-23T11:32:12;17.75;;;3.92;;
75687;SDS011;64300;45.034;38.910;2023-02-23T11:34:41;9.02;;;4.60;;
75687;SDS011;64300;45.034;38.910;2023-02-23T11:37:18;7.53;;;3.20;;
75687;SDS011;64300;45.034;38.910;2023-02-23T11:39:50;11.85;;;4.95;;
75687;SDS011;64300;45.034;38.910;2023-02-23T11:42:17;12.15;;;4.35;;
75687;SDS011;64300;45.034;38.910;2023-02-23T11:44:48;7.47;;;2.88;;
75687;SDS011;64300;45.034;38.910;2023-02-23T11:47:30;8.40;;;2.53;;
75687;SDS011;64300;45.034;38.910;2023-02-23T11:49:59;11.98;;;4.47;;
75687;SDS011;64300;45.034;38.910;2023-02-23T11:52:28;5.25;;;2.22;;
75687;SDS011;64300;45.034;38.910;2023-02-23T11:54:58;11.30;;;4.30;;
75687;SDS011;64300;45.034;38.910;2023-02-23T11:57:30;6.95;;;2.90;;
75687;SDS011;64300;45.034;38.910;2023-02-23T11:59:59;10.20;;;3.75;;
75687;SDS011;64300;45.034;38.910;2023-02-23T12:02:48;11.50;;;5.00;;
75687;SDS011;64300;45.034;38.910;2023-02-23T12:07:50;13.27;;;5.55;;
75687;SDS011;64300;45.034;38.910;2023-02-23T12:10:20;9.20;;;4.70;;
75687;SDS011;64300;45.034;38.910;2023-02-23T12:21:12;12.90;;;5.15;;
75687;SDS011;64300;45.034;38.910;2023-02-23T12:23:45;13.45;;;4.97;;
75687;SDS011;64300;45.034;38.910;2023-02-23T12:26:22;9.60;;;4.05;;
75687;SDS011;64300;45.034;38.910;2023-02-23T12:31:35;6.15;;;3.38;;
75687;SDS011;64300;45.034;38.910;2023-02-23T12:34:20;5.43;;;2.10;;
75687;SDS011;64300;45.034;38.910;2023-02-23T12:37:01;7.00;;;2.60;;
75687;SDS011;64300;45.034;38.910;2023-02-23T12:39:53;7.30;;;2.85;;
75687;SDS011;64300;45.034;38.910;2023-02-23T12:42:41;10.60;;;4.22;;
75687;SDS011;64300;45.034;38.910;2023-02-23T12:51:05;6.03;;;2.15;;
75687;SDS011;64300;45.034;38.910;2023-02-23T12:53:43;5.90;;;3.03;;
75687;SDS011;64300;45.034;38.910;2023-02-23T12:59:00;8.60;;;3.47;;
75687;SDS011;64300;45.034;38.910;2023-02-23T13:01:42;6.07;;;2.58;;
75687;SDS011;64300;45.034;38.910;2023-02-23T13:05:02;9.85;;;4.32;;
75687;SDS011;64300;45.034;38.910;2023-02-23T13:07:15;8.52;;;2.88;;
75687;SDS011;64300;45.034;38.910;2023-02-23T13:15:22;8.02;;;3.10;;
75687;SDS011;64300;45.034;38.910;2023-02-23T13:20:47;5.80;;;2.85;;
75687;SDS011;64300;45.034;38.910;2023-02-23T13:31:47;4.47;;;1.95;;
75687;SDS011;64300;45.034;38.910;2023-02-23T13:36:48;5.15;;;2.42;;
75687;SDS011;64300;45.034;38.910;2023-02-23T13:44:53;2.80;;;1.23;;
75687;SDS011;64300;45.034;38.910;2023-02-23T13:50:23;6.82;;;2.55;;
75687;SDS011;64300;45.034;38.910;2023-02-23T13:56:23;5.53;;;2.50;;
75687;SDS011;64300;45.034;38.910;2023-02-23T14:01:28;9.85;;;3.95;;
75687;SDS011;64300;45.034;38.910;2023-02-23T14:03:56;6.22;;;2.30;;
75687;SDS011;64300;45.034;38.910;2023-02-23T14:06:28;5.55;;;1.52;;
75687;SDS011;64300;45.034;38.910;2023-02-23T14:08:59;4.35;;;2.05;;
75687;SDS011;64300;45.034;38.910;2023-02-23T14:14:12;7.95;;;2.47;;
75687;SDS011;64300;45.034;38.910;2023-02-23T14:23:03;6.32;;;2.53;;
75687;SDS011;64300;45.034;38.910;2023-02-23T14:31:02;8.90;;;3.33;;
75687;SDS011;64300;45.034;38.910;2023-02-23T14:36:28;8.02;;;3.50;;
75687;SDS011;64300;45.034;38.910;2023-02-23T14:41:54;7.72;;;2.67;;
75687;SDS011;64300;45.034;38.910;2023-02-23T14:44:26;9.32;;;2.55;;
75687;SDS011;64300;45.034;38.910;2023-02-23T14:47:14;4.43;;;2.08;;
75687;SDS011;64300;45.034;38.910;2023-02-23T14:49:47;8.52;;;3.13;;
75687;SDS011;64300;45.034;38.910;2023-02-23T14:52:21;2.35;;;1.17;;
75687;SDS011;64300;45.034;38.910;2023-02-23T14:57:41;8.73;;;3.08;;
75687;SDS011;64300;45.034;38.910;2023-02-23T15:02:37;6.75;;;2.90;;
75687;SDS011;64300;45.034;38.910;2023-02-23T15:05:22;5.85;;;2.28;;
75687;SDS011;64300;45.034;38.910;2023-02-23T15:08:01;1.80;;;0.90;;
75687;SDS011;64300;45.034;38.910;2023-02-23T15:10:34;8.48;;;3.33;;
75687;SDS011;64300;45.034;38.910;2023-02-23T15:13:06;13.50;;;2.42;;
75687;SDS011;64300;45.034;38.910;2023-02-23T15:15:35;6.20;;;2.08;;
75687;SDS011;64300;45.034;38.910;2023-02-23T15:18:09;5.25;;;1.63;;
75687;SDS011;64300;45.034;38.910;2023-02-23T15:20:56;7.28;;;1.58;;
75687;SDS011;64300;45.034;38.910;2023-02-23T15:23:32;8.07;;;2.63;;
75687;SDS011;64300;45.034;38.910;2023-02-23T15:28:40;7.97;;;2.80;;
75687;SDS011;64300;45.034;38.910;2023-02-23T15:31:11;4.88;;;1.58;;
75687;SDS011;64300;45.034;38.910;2023-02-23T15:33:40;5.45;;;2.08;;
75687;SDS011;64300;45.034;38.910;2023-02-23T15:36:25;5.68;;;2.22;;
75687;SDS011;64300;45.034;38.910;2023-02-23T15:39:00;8.70;;;3.55;;
75687;SDS011;64300;45.034;38.910;2023-02-23T15:41:30;11.02;;;3.28;;
75687;SDS011;64300;45.034;38.910;2023-02-23T15:47:32;5.10;;;2.63;;
75687;SDS011;64300;45.034;38.910;2023-02-23T15:50:05;7.95;;;2.05;;
75687;SDS011;64300;45.034;38.910;2023-02-23T15:52:45;7.30;;;3.13;;
75687;SDS011;64300;45.034;38.910;2023-02-23T15:55:23;4.63;;;1.92;;
75687;SDS011;64300;45.034;38.910;2023-02-23T15:57:56;16.80;;;6.13;;
75687;SDS011;64300;45.034;38.910;2023-02-23T16:00:42;3.67;;;1.77;;
75687;SDS011;64300;45.034;38.910;2023-02-23T16:03:32;12.80;;;4.97;;
75687;SDS011;64300;45.034;38.910;2023-02-23T16:06:05;11.43;;;4.35;;
75687;SDS011;64300;45.034;38.910;2023-02-23T16:08:33;11.75;;;4.18;;
75687;SDS011;64300;45.034;38.910;2023-02-23T16:11:01;15.90;;;4.13;;
75687;SDS011;64300;45.034;38.910;2023-02-23T16:16:33;6.13;;;2.72;;
75687;SDS011;64300;45.034;38.910;2023-02-23T16:18:59;6.22;;;1.98;;
75687;SDS011;64300;45.034;38.910;2023-02-23T16:21:27;5.65;;;2.75;;
75687;SDS011;64300;45.034;38.910;2023-02-23T16:26:36;12.52;;;1.52;;
75687;SDS011;64300;45.034;38.910;2023-02-23T16:29:08;6.28;;;2.80;;
75687;SDS011;64300;45.034;38.910;2023-02-23T16:31:46;8.90;;;3.72;;
75687;SDS011;64300;45.034;38.910;2023-02-23T16:34:24;9.82;;;3.72;;
75687;SDS011;64300;45.034;38.910;2023-02-23T16:37:00;8.88;;;3.67;;
75687;SDS011;64300;45.034;38.910;2023-02-23T16:39:28;12.95;;;4.50;;
75687;SDS011;64300;45.034;38.910;2023-02-23T16:41:56;3.28;;;1.35;;
75687;SDS011;64300;45.034;38.910;2023-02-23T16:44:23;4.30;;;1.90;;
75687;SDS011;64300;45.034;38.910;2023-02-23T16:49:27;16.10;;;4.40;;
75687;SDS011;64300;45.034;38.910;2023-02-23T16:51:58;14.45;;;2.55;;
75687;SDS011;64300;45.034;38.910;2023-02-23T16:54:25;7.80;;;3.28;;
75687;SDS011;64300;45.034;38.910;2023-02-23T16:56:52;5.60;;;2.67;;
75687;SDS011;64300;45.034;38.910;2023-02-23T16:59:21;10.63;;;2.42;;
75687;SDS011;64300;45.034;38.910;2023-02-23T17:01:48;11.45;;;4.93;;
75687;SDS011;64300;45.034;38.910;2023-02-23T17:04:16;6.65;;;2.45;;
75687;SDS011;64300;45.034;38.910;2023-02-23T17:06:46;14.57;;;5.25;;
75687;SDS011;64300;45.034;38.910;2023-02-23T17:09:21;5.05;;;2.42;;
75687;SDS011;64300;45.034;38.910;2023-02-23T17:11:48;7.10;;;2.75;;
75687;SDS011;64300;45.034;38.910;2023-02-23T17:14:22;8.88;;;2.35;;
75687;SDS011;64300;45.034;38.910;2023-02-23T17:16:50;11.05;;;3.55;;
75687;SDS011;64300;45.034;38.910;2023-02-23T17:19:16;13.43;;;5.10;;
75687;SDS011;64300;45.034;38.910;2023-02-23T17:21:43;4.10;;;1.15;;
75687;SDS011;64300;45.034;38.910;2023-02-23T17:26:35;11.55;;;3.80;;
75687;SDS011;64300;45.034;38.910;2023-02-23T17:29:01;20.58;;;6.60;;
75687;SDS011;64300;45.034;38.910;2023-02-23T17:31:27;11.65;;;4.45;;
75687;SDS011;64300;45.034;38.910;2023-02-23T17:33:53;2.97;;;1.58;;
75687;SDS011;64300;45.034;38.910;2023-02-23T17:36:19;11.50;;;4.90;;
75687;SDS011;64300;45.034;38.910;2023-02-23T17:38:46;11.18;;;4.95;;
75687;SDS011;64300;45.034;38.910;2023-02-23T17:41:16;11.57;;;4.90;;
75687;SDS011;64300;45.034;38.910;2023-02-23T17:43:43;9.25;;;4.68;;
75687;SDS011;64300;45.034;38.910;2023-02-23T17:48:36;12.18;;;3.92;;
75687;SDS011;64300;45.034;38.910;2023-02-23T17:51:08;12.38;;;5.00;;
75687;SDS011;64300;45.034;38.910;2023-02-23T17:53:38;6.13;;;2.47;;
75687;SDS011;64300;45.034;38.910;2023-02-23T17:56:04;7.55;;;2.70;;
75687;SDS011;64300;45.034;38.910;2023-02-23T17:58:31;4.63;;;2.00;;
75687;SDS011;64300;45.034;38.910;2023-02-23T18:00:57;11.68;;;5.82;;
75687;SDS011;64300;45.034;38.910;2023-02-23T18:03:26;15.52;;;5.82;;
75687;SDS011;64300;45.034;38.910;2023-02-23T18:05:59;7.85;;;3.85;;